sensor_id;sensor_type;location;lat;lon;timestamp;P1;durP1;ratioP1;P2;durP2;ratioP2
2658;SDS011;1339;53.304;10.406;2022-12-24T00:00:14;18.35;;;8.88;;
2658;SDS011;1339;53.304;10.406;2022-12-24T00:02:41;18.88;;;11.38;;
2658;SDS011;1339;53.304;10.406;2022-12-24T00:05:08;22.52;;;11.70;;
2658;SDS011;1339;53.304;10.406;2022-12-24T00:07:35;21.75;;;11.27;;
2658;SDS011;1339;53.304;10.406;2022-12-24T00:10:04;21.80;;;10.02;;
2658;SDS011;1339;53.304;10.406;2022-12-24T00:12:31;21.88;;;10.73;;
2658;SDS011;1339;53.304;10.406;2022-12-24T00:14:58;19.33;;;10.27;;
2658;SDS011;1339;53.304;10.406;2022-12-24T00:17:25;24.52;;;12.35;;
2658;SDS011;1339;53.304;10.406;2022-12-24T00:19:52;20.08;;;10.90;;
2658;SDS011;1339;53.304;10.406;2022-12-24T00:22:19;18.50;;;11.35;;
2658;SDS011;1339;53.304;10.406;2022-12-24T00:24:46;22.00;;;12.57;;
2658;SDS011;1339;53.304;10.406;2022-12-24T00:27:15;17.30;;;11.23;;
2658;SDS011;1339;53.304;10.406;2022-12-24T00:29:42;18.23;;;11.60;;
2658;SDS011;1339;53.304;10.406;2022-12-24T00:32:09;15.50;;;9.77;;
2658;SDS011;1339;53.304;10.406;2022-12-24T00:34:36;21.70;;;11.80;;
2658;SDS011;1339;53.304;10.406;2022-12-24T00:37:03;19.02;;;12.40;;
2658;SDS011;1339;53.304;10.406;2022-12-24T00:39:30;23.80;;;12.13;;
2658;SDS011;1339;53.304;10.406;2022-12-24T00:41:57;22.50;;;11.05;;
2658;SDS011;1339;53.304;10.406;2022-12-24T00:44:25;17.88;;;10.45;;
2658;SDS011;1339;53.304;10.406;2022-12-24T00:46:52;18.52;;;12.93;;
2658;SDS011;1339;53.304;10.406;2022-12-24T00:49:19;20.13;;;12.05;;
2658;SDS011;1339;53.304;10.406;2022-12-24T00:51:46;23.33;;;13.73;;
2658;SDS011;1339;53.304;10.406;2022-12-24T00:54:14;16.00;;;10.25;;
2658;SDS011;1339;53.304;10.406;2022-12-24T00:56:41;20.15;;;11.80;;
2658;SDS011;1339;53.304;10.406;2022-12-24T00:59:08;21.35;;;13.15;;
2658;SDS011;1339;53.304;10.406;2022-12-24T01:01:36;19.02;;;10.40;;
2658;SDS011;1339;53.304;10.406;2022-12-24T01:04:03;19.65;;;10.85;;
2658;SDS011;1339;53.304;10.406;2022-12-24T01:06:48;20.00;;;10.63;;
2658;SDS011;1339;53.304;10.406;2022-12-24T01:09:15;27.42;;;11.70;;
2658;SDS011;1339;53.304;10.406;2022-12-24T01:11:42;18.08;;;11.20;;
2658;SDS011;1339;53.304;10.406;2022-12-24T01:14:10;20.67;;;11.93;;
2658;SDS011;1339;53.304;10.406;2022-12-24T01:16:38;20.38;;;12.05;;
2658;SDS011;1339;53.304;10.406;2022-12-24T01:19:05;17.85;;;11.25;;
2658;SDS011;1339;53.304;10.406;2022-12-24T01:21:32;19.40;;;11.20;;
2658;SDS011;1339;53.304;10.406;2022-12-24T01:23:59;18.92;;;11.43;;
2658;SDS011;1339;53.304;10.406;2022-12-24T01:26:26;20.92;;;13.07;;
2658;SDS011;1339;53.304;10.406;2022-12-24T01:28:53;25.30;;;12.07;;
2658;SDS011;1339;53.304;10.406;2022-12-24T01:31:21;20.38;;;12.23;;
2658;SDS011;1339;53.304;10.406;2022-12-24T01:33:49;18.95;;;11.57;;
2658;SDS011;1339;53.304;10.406;2022-12-24T01:36:16;21.33;;;12.73;;
2658;SDS011;1339;53.304;10.406;2022-12-24T01:38:43;21.15;;;11.73;;
2658;SDS011;1339;53.304;10.406;2022-12-24T01:41:13;20.42;;;12.68;;
2658;SDS011;1339;53.304;10.406;2022-12-24T01:46:40;22.50;;;13.38;;
2658;SDS011;1339;53.304;10.406;2022-12-24T01:49:08;23.80;;;13.38;;
2658;SDS011;1339;53.304;10.406;2022-12-24T01:51:37;19.83;;;13.52;;
2658;SDS011;1339;53.304;10.406;2022-12-24T01:54:06;23.05;;;12.82;;
2658;SDS011;1339;53.304;10.406;2022-12-24T01:56:36;19.00;;;12.65;;
2658;SDS011;1339;53.304;10.406;2022-12-24T01:59:06;19.65;;;12.85;;
2658;SDS011;1339;53.304;10.406;2022-12-24T02:01:34;18.15;;;12.07;;
2658;SDS011;1339;53.304;10.406;2022-12-24T02:04:01;27.50;;;13.57;;
2658;SDS011;1339;53.304;10.406;2022-12-24T02:06:32;23.80;;;15.15;;
2658;SDS011;1339;53.304;10.406;2022-12-24T02:08:59;25.77;;;16.13;;
2658;SDS011;1339;53.304;10.406;2022-12-24T02:11:26;21.42;;;13.00;;
2658;SDS011;1339;53.304;10.406;2022-12-24T02:13:54;25.55;;;13.52;;
2658;SDS011;1339;53.304;10.406;2022-12-24T02:16:26;24.60;;;13.10;;
2658;SDS011;1339;53.304;10.406;2022-12-24T02:18:56;23.02;;;13.35;;
2658;SDS011;1339;53.304;10.406;2022-12-24T02:21:33;23.67;;;12.40;;
2658;SDS011;1339;53.304;10.406;2022-12-24T02:24:21;21.50;;;13.18;;
2658;SDS011;1339;53.304;10.406;2022-12-24T02:26:59;21.02;;;11.65;;
2658;SDS011;1339;53.304;10.406;2022-12-24T02:32:04;25.30;;;12.45;;
2658;SDS011;1339;53.304;10.406;2022-12-24T02:34:36;21.45;;;12.07;;
2658;SDS011;1339;53.304;10.406;2022-12-24T02:37:06;26.42;;;12.52;;
2658;SDS011;1339;53.304;10.406;2022-12-24T02:39:36;24.60;;;13.57;;
2658;SDS011;1339;53.304;10.406;2022-12-24T02:42:04;21.75;;;12.43;;
2658;SDS011;1339;53.304;10.406;2022-12-24T02:44:33;22.50;;;12.38;;
2658;SDS011;1339;53.304;10.406;2022-12-24T02:47:03;23.15;;;15.00;;
2658;SDS011;1339;53.304;10.406;2022-12-24T02:49:32;22.05;;;13.15;;
2658;SDS011;1339;53.304;10.406;2022-12-24T02:51:59;20.83;;;13.10;;
2658;SDS011;1339;53.304;10.406;2022-12-24T02:54:26;25.08;;;12.88;;
2658;SDS011;1339;53.304;10.406;2022-12-24T02:56:57;20.15;;;13.32;;
2658;SDS011;1339;53.304;10.406;2022-12-24T02:59:34;20.83;;;12.90;;
2658;SDS011;1339;53.304;10.406;2022-12-24T03:02:10;26.33;;;14.05;;
2658;SDS011;1339;53.304;10.406;2022-12-24T03:04:44;20.10;;;12.25;;
2658;SDS011;1339;53.304;10.406;2022-12-24T03:07:14;19.58;;;11.77;;
2658;SDS011;1339;53.304;10.406;2022-12-24T03:09:49;23.77;;;13.27;;
2658;SDS011;1339;53.304;10.406;2022-12-24T03:12:18;18.35;;;10.38;;
2658;SDS011;1339;53.304;10.406;2022-12-24T03:14:48;15.77;;;10.45;;
2658;SDS011;1339;53.304;10.406;2022-12-24T03:17:17;18.20;;;11.07;;
2658;SDS011;1339;53.304;10.406;2022-12-24T03:19:44;19.48;;;11.90;;
2658;SDS011;1339;53.304;10.406;2022-12-24T03:22:12;20.02;;;11.82;;
2658;SDS011;1339;53.304;10.406;2022-12-24T03:24:40;19.40;;;12.50;;
2658;SDS011;1339;53.304;10.406;2022-12-24T03:27:07;21.83;;;13.13;;
2658;SDS011;1339;53.304;10.406;2022-12-24T03:29:36;21.70;;;12.38;;
2658;SDS011;1339;53.304;10.406;2022-12-24T03:32:04;23.73;;;13.95;;
2658;SDS011;1339;53.304;10.406;2022-12-24T03:34:32;21.98;;;11.48;;
2658;SDS011;1339;53.304;10.406;2022-12-24T03:36:59;18.88;;;12.15;;
2658;SDS011;1339;53.304;10.406;2022-12-24T03:39:26;24.00;;;13.50;;
2658;SDS011;1339;53.304;10.406;2022-12-24T03:41:53;21.15;;;11.77;;
2658;SDS011;1339;53.304;10.406;2022-12-24T03:44:20;17.65;;;12.02;;
2658;SDS011;1339;53.304;10.406;2022-12-24T03:46:47;16.95;;;10.68;;
2658;SDS011;1339;53.304;10.406;2022-12-24T03:49:14;19.08;;;11.70;;
2658;SDS011;1339;53.304;10.406;2022-12-24T03:51:42;19.98;;;12.18;;
2658;SDS011;1339;53.304;10.406;2022-12-24T03:54:09;18.13;;;11.75;;
2658;SDS011;1339;53.304;10.406;2022-12-24T03:56:36;16.95;;;11.93;;
2658;SDS011;1339;53.304;10.406;2022-12-24T03:59:03;22.27;;;12.30;;
2658;SDS011;1339;53.304;10.406;2022-12-24T04:01:30;20.52;;;11.90;;
2658;SDS011;1339;53.304;10.406;2022-12-24T04:03:57;17.17;;;10.88;;
2658;SDS011;1339;53.304;10.406;2022-12-24T04:06:24;19.55;;;12.50;;
2658;SDS011;1339;53.304;10.406;2022-12-24T04:08:52;24.50;;;12.90;;
2658;SDS011;1339;53.304;10.406;2022-12-24T04:11:19;17.80;;;11.57;;
2658;SDS011;1339;53.304;10.406;2022-12-24T04:13:46;22.25;;;11.60;;
2658;SDS011;1339;53.304;10.406;2022-12-24T04:16:14;18.60;;;10.70;;
2658;SDS011;1339;53.304;10.406;2022-12-24T04:18:41;20.98;;;12.38;;
2658;SDS011;1339;53.304;10.406;2022-12-24T04:21:08;15.43;;;10.20;;
2658;SDS011;1339;53.304;10.406;2022-12-24T04:23:36;16.90;;;11.73;;
2658;SDS011;1339;53.304;10.406;2022-12-24T04:26:05;19.08;;;10.77;;
2658;SDS011;1339;53.304;10.406;2022-12-24T04:28:32;17.00;;;10.45;;
2658;SDS011;1339;53.304;10.406;2022-12-24T04:31:00;16.42;;;10.70;;
2658;SDS011;1339;53.304;10.406;2022-12-24T04:33:27;17.17;;;11.00;;
2658;SDS011;1339;53.304;10.406;2022-12-24T04:35:55;18.30;;;11.85;;
2658;SDS011;1339;53.304;10.406;2022-12-24T04:38:23;15.95;;;11.05;;
2658;SDS011;1339;53.304;10.406;2022-12-24T04:40:56;18.17;;;9.80;;
2658;SDS011;1339;53.304;10.406;2022-12-24T04:43:24;17.65;;;11.38;;
2658;SDS011;1339;53.304;10.406;2022-12-24T04:45:51;17.90;;;10.45;;
2658;SDS011;1339;53.304;10.406;2022-12-24T04:48:18;16.13;;;11.30;;
2658;SDS011;1339;53.304;10.406;2022-12-24T04:50:45;12.02;;;8.18;;
2658;SDS011;1339;53.304;10.406;2022-12-24T04:53:12;14.23;;;10.00;;
2658;SDS011;1339;53.304;10.406;2022-12-24T04:55:42;17.73;;;10.70;;
2658;SDS011;1339;53.304;10.406;2022-12-24T04:58:09;16.25;;;10.65;;
2658;SDS011;1339;53.304;10.406;2022-12-24T05:00:37;15.52;;;9.45;;
2658;SDS011;1339;53.304;10.406;2022-12-24T05:03:04;19.00;;;11.20;;
2658;SDS011;1339;53.304;10.406;2022-12-24T05:05:31;16.08;;;10.45;;
2658;SDS011;1339;53.304;10.406;2022-12-24T05:07:58;15.45;;;10.98;;
2658;SDS011;1339;53.304;10.406;2022-12-24T05:10:25;16.05;;;11.05;;
2658;SDS011;1339;53.304;10.406;2022-12-24T05:12:52;13.63;;;8.85;;
2658;SDS011;1339;53.304;10.406;2022-12-24T05:15:19;19.23;;;11.85;;
2658;SDS011;1339;53.304;10.406;2022-12-24T05:17:47;15.80;;;10.88;;
2658;SDS011;1339;53.304;10.406;2022-12-24T05:20:15;16.73;;;11.15;;
2658;SDS011;1339;53.304;10.406;2022-12-24T05:22:42;16.25;;;10.82;;
2658;SDS011;1339;53.304;10.406;2022-12-24T05:25:27;14.30;;;9.82;;
2658;SDS011;1339;53.304;10.406;2022-12-24T05:28:15;15.07;;;10.98;;
2658;SDS011;1339;53.304;10.406;2022-12-24T05:30:42;14.95;;;10.00;;
2658;SDS011;1339;53.304;10.406;2022-12-24T05:33:11;11.38;;;8.57;;
2658;SDS011;1339;53.304;10.406;2022-12-24T05:35:38;14.85;;;10.57;;
2658;SDS011;1339;53.304;10.406;2022-12-24T05:38:05;14.52;;;9.48;;
2658;SDS011;1339;53.304;10.406;2022-12-24T05:40:32;13.55;;;9.82;;
2658;SDS011;1339;53.304;10.406;2022-12-24T05:42:58;15.48;;;9.15;;
2658;SDS011;1339;53.304;10.406;2022-12-24T05:45:25;17.55;;;8.98;;
2658;SDS011;1339;53.304;10.406;2022-12-24T05:47:52;17.25;;;9.13;;
2658;SDS011;1339;53.304;10.406;2022-12-24T05:50:21;14.77;;;10.00;;
2658;SDS011;1339;53.304;10.406;2022-12-24T05:52:48;15.02;;;10.80;;
2658;SDS011;1339;53.304;10.406;2022-12-24T05:55:15;15.98;;;9.18;;
2658;SDS011;1339;53.304;10.406;2022-12-24T05:57:42;17.90;;;9.63;;
2658;SDS011;1339;53.304;10.406;2022-12-24T06:00:09;13.40;;;8.52;;
2658;SDS011;1339;53.304;10.406;2022-12-24T06:02:36;16.10;;;9.75;;
2658;SDS011;1339;53.304;10.406;2022-12-24T06:05:03;12.27;;;8.75;;
2658;SDS011;1339;53.304;10.406;2022-12-24T06:07:31;13.70;;;8.93;;
2658;SDS011;1339;53.304;10.406;2022-12-24T06:09:58;14.90;;;8.85;;
2658;SDS011;1339;53.304;10.406;2022-12-24T06:12:25;17.52;;;10.73;;
2658;SDS011;1339;53.304;10.406;2022-12-24T06:14:52;15.70;;;10.38;;
2658;SDS011;1339;53.304;10.406;2022-12-24T06:17:19;12.32;;;8.10;;
2658;SDS011;1339;53.304;10.406;2022-12-24T06:19:46;15.23;;;10.57;;
2658;SDS011;1339;53.304;10.406;2022-12-24T06:22:13;13.88;;;9.40;;
2658;SDS011;1339;53.304;10.406;2022-12-24T06:24:41;15.60;;;9.77;;
2658;SDS011;1339;53.304;10.406;2022-12-24T06:27:08;13.55;;;8.63;;
2658;SDS011;1339;53.304;10.406;2022-12-24T06:29:35;15.10;;;9.20;;
2658;SDS011;1339;53.304;10.406;2022-12-24T06:32:02;15.10;;;9.50;;
2658;SDS011;1339;53.304;10.406;2022-12-24T06:34:30;13.63;;;9.55;;
2658;SDS011;1339;53.304;10.406;2022-12-24T06:36:57;11.88;;;8.95;;
2658;SDS011;1339;53.304;10.406;2022-12-24T06:39:24;15.93;;;8.80;;
2658;SDS011;1339;53.304;10.406;2022-12-24T06:41:52;15.63;;;8.63;;
2658;SDS011;1339;53.304;10.406;2022-12-24T06:44:19;12.57;;;8.45;;
2658;SDS011;1339;53.304;10.406;2022-12-24T06:46:46;12.70;;;7.57;;
2658;SDS011;1339;53.304;10.406;2022-12-24T06:49:13;13.10;;;8.75;;
2658;SDS011;1339;53.304;10.406;2022-12-24T06:51:40;12.00;;;8.38;;
2658;SDS011;1339;53.304;10.406;2022-12-24T06:54:07;13.48;;;9.57;;
2658;SDS011;1339;53.304;10.406;2022-12-24T06:56:34;13.65;;;9.43;;
2658;SDS011;1339;53.304;10.406;2022-12-24T06:59:02;16.77;;;9.07;;
2658;SDS011;1339;53.304;10.406;2022-12-24T07:01:29;16.55;;;10.38;;
2658;SDS011;1339;53.304;10.406;2022-12-24T07:03:56;13.18;;;8.68;;
2658;SDS011;1339;53.304;10.406;2022-12-24T07:06:24;11.77;;;7.10;;
2658;SDS011;1339;53.304;10.406;2022-12-24T07:08:51;12.70;;;8.15;;
2658;SDS011;1339;53.304;10.406;2022-12-24T07:11:18;13.82;;;8.65;;
2658;SDS011;1339;53.304;10.406;2022-12-24T07:13:46;12.10;;;8.25;;
2658;SDS011;1339;53.304;10.406;2022-12-24T07:16:14;16.10;;;10.02;;
2658;SDS011;1339;53.304;10.406;2022-12-24T07:18:41;11.02;;;7.25;;
2658;SDS011;1339;53.304;10.406;2022-12-24T07:21:08;16.50;;;7.43;;
2658;SDS011;1339;53.304;10.406;2022-12-24T07:23:35;14.70;;;8.93;;
2658;SDS011;1339;53.304;10.406;2022-12-24T07:26:03;13.60;;;8.88;;
2658;SDS011;1339;53.304;10.406;2022-12-24T07:28:30;10.85;;;8.43;;
2658;SDS011;1339;53.304;10.406;2022-12-24T07:30:57;13.80;;;9.65;;
2658;SDS011;1339;53.304;10.406;2022-12-24T07:33:26;14.05;;;8.98;;
2658;SDS011;1339;53.304;10.406;2022-12-24T07:35:56;16.77;;;9.00;;
2658;SDS011;1339;53.304;10.406;2022-12-24T07:38:24;13.02;;;8.15;;
2658;SDS011;1339;53.304;10.406;2022-12-24T07:40:51;16.02;;;10.27;;
2658;SDS011;1339;53.304;10.406;2022-12-24T07:43:18;11.65;;;7.78;;
2658;SDS011;1339;53.304;10.406;2022-12-24T07:45:45;13.20;;;8.45;;
2658;SDS011;1339;53.304;10.406;2022-12-24T07:48:12;14.13;;;9.00;;
2658;SDS011;1339;53.304;10.406;2022-12-24T07:50:41;12.25;;;7.88;;
2658;SDS011;1339;53.304;10.406;2022-12-24T07:53:08;14.07;;;9.20;;
2658;SDS011;1339;53.304;10.406;2022-12-24T07:55:35;14.32;;;7.72;;
2658;SDS011;1339;53.304;10.406;2022-12-24T07:58:02;13.73;;;7.45;;
2658;SDS011;1339;53.304;10.406;2022-12-24T08:00:29;13.20;;;8.23;;
2658;SDS011;1339;53.304;10.406;2022-12-24T08:02:55;13.93;;;8.60;;
2658;SDS011;1339;53.304;10.406;2022-12-24T08:05:23;12.63;;;8.23;;
2658;SDS011;1339;53.304;10.406;2022-12-24T08:07:52;9.88;;;6.85;;
2658;SDS011;1339;53.304;10.406;2022-12-24T08:10:19;12.30;;;7.78;;
2658;SDS011;1339;53.304;10.406;2022-12-24T08:12:46;8.80;;;7.22;;
2658;SDS011;1339;53.304;10.406;2022-12-24T08:15:14;9.23;;;7.03;;
2658;SDS011;1339;53.304;10.406;2022-12-24T08:17:41;10.95;;;6.97;;
2658;SDS011;1339;53.304;10.406;2022-12-24T08:20:08;11.27;;;7.82;;
2658;SDS011;1339;53.304;10.406;2022-12-24T08:22:35;11.02;;;6.90;;
2658;SDS011;1339;53.304;10.406;2022-12-24T08:25:04;14.48;;;8.15;;
2658;SDS011;1339;53.304;10.406;2022-12-24T08:27:31;8.88;;;6.07;;
2658;SDS011;1339;53.304;10.406;2022-12-24T08:29:58;9.23;;;6.72;;
2658;SDS011;1339;53.304;10.406;2022-12-24T08:32:25;12.20;;;6.93;;
2658;SDS011;1339;53.304;10.406;2022-12-24T08:34:52;7.50;;;6.65;;
2658;SDS011;1339;53.304;10.406;2022-12-24T08:37:19;8.23;;;5.85;;
2658;SDS011;1339;53.304;10.406;2022-12-24T08:39:46;12.07;;;7.10;;
2658;SDS011;1339;53.304;10.406;2022-12-24T08:42:14;6.72;;;5.43;;
2658;SDS011;1339;53.304;10.406;2022-12-24T08:44:41;10.05;;;5.68;;
2658;SDS011;1339;53.304;10.406;2022-12-24T08:47:08;12.15;;;6.97;;
2658;SDS011;1339;53.304;10.406;2022-12-24T08:49:35;9.77;;;6.70;;
2658;SDS011;1339;53.304;10.406;2022-12-24T08:52:03;9.75;;;6.47;;
2658;SDS011;1339;53.304;10.406;2022-12-24T08:54:30;8.77;;;6.00;;
2658;SDS011;1339;53.304;10.406;2022-12-24T08:56:57;7.30;;;5.25;;
2658;SDS011;1339;53.304;10.406;2022-12-24T08:59:25;10.50;;;7.78;;
2658;SDS011;1339;53.304;10.406;2022-12-24T09:01:52;7.82;;;6.35;;
2658;SDS011;1339;53.304;10.406;2022-12-24T09:04:19;8.75;;;5.45;;
2658;SDS011;1339;53.304;10.406;2022-12-24T09:06:46;12.07;;;7.65;;
2658;SDS011;1339;53.304;10.406;2022-12-24T09:09:13;10.38;;;6.47;;
2658;SDS011;1339;53.304;10.406;2022-12-24T09:11:40;10.00;;;5.93;;
2658;SDS011;1339;53.304;10.406;2022-12-24T09:14:07;6.20;;;5.57;;
2658;SDS011;1339;53.304;10.406;2022-12-24T09:16:35;10.80;;;6.20;;
2658;SDS011;1339;53.304;10.406;2022-12-24T09:19:02;9.85;;;6.20;;
2658;SDS011;1339;53.304;10.406;2022-12-24T09:21:29;8.95;;;6.13;;
2658;SDS011;1339;53.304;10.406;2022-12-24T09:23:56;8.02;;;7.07;;
2658;SDS011;1339;53.304;10.406;2022-12-24T09:26:25;7.40;;;6.35;;
2658;SDS011;1339;53.304;10.406;2022-12-24T09:28:53;10.50;;;6.65;;
2658;SDS011;1339;53.304;10.406;2022-12-24T09:31:20;6.18;;;5.43;;
2658;SDS011;1339;53.304;10.406;2022-12-24T09:33:49;7.30;;;6.60;;
2658;SDS011;1339;53.304;10.406;2022-12-24T09:36:16;9.30;;;7.22;;
2658;SDS011;1339;53.304;10.406;2022-12-24T09:38:44;8.15;;;6.13;;
2658;SDS011;1339;53.304;10.406;2022-12-24T09:41:11;8.23;;;6.25;;
2658;SDS011;1339;53.304;10.406;2022-12-24T09:43:39;9.27;;;7.50;;
2658;SDS011;1339;53.304;10.406;2022-12-24T09:46:12;9.38;;;7.72;;
2658;SDS011;1339;53.304;10.406;2022-12-24T09:48:42;9.25;;;6.93;;
2658;SDS011;1339;53.304;10.406;2022-12-24T09:51:15;7.97;;;6.45;;
2658;SDS011;1339;53.304;10.406;2022-12-24T09:53:44;8.25;;;6.80;;
2658;SDS011;1339;53.304;10.406;2022-12-24T09:56:15;9.57;;;6.40;;
2658;SDS011;1339;53.304;10.406;2022-12-24T09:58:44;8.60;;;7.30;;
2658;SDS011;1339;53.304;10.406;2022-12-24T10:01:13;9.23;;;7.80;;
2658;SDS011;1339;53.304;10.406;2022-12-24T10:03:44;10.25;;;8.48;;
2658;SDS011;1339;53.304;10.406;2022-12-24T10:06:13;9.73;;;7.38;;
2658;SDS011;1339;53.304;10.406;2022-12-24T10:08:45;10.63;;;6.85;;
2658;SDS011;1339;53.304;10.406;2022-12-24T10:11:15;7.40;;;6.32;;
2658;SDS011;1339;53.304;10.406;2022-12-24T10:13:49;6.13;;;5.47;;
2658;SDS011;1339;53.304;10.406;2022-12-24T10:16:19;5.65;;;5.00;;
2658;SDS011;1339;53.304;10.406;2022-12-24T10:18:50;6.82;;;6.25;;
2658;SDS011;1339;53.304;10.406;2022-12-24T10:21:25;7.03;;;6.40;;
2658;SDS011;1339;53.304;10.406;2022-12-24T10:23:57;6.18;;;5.60;;
2658;SDS011;1339;53.304;10.406;2022-12-24T10:26:27;7.00;;;5.45;;
2658;SDS011;1339;53.304;10.406;2022-12-24T10:28:57;6.45;;;5.60;;
2658;SDS011;1339;53.304;10.406;2022-12-24T10:31:25;6.68;;;6.03;;
2658;SDS011;1339;53.304;10.406;2022-12-24T10:33:53;6.55;;;5.95;;
2658;SDS011;1339;53.304;10.406;2022-12-24T10:36:24;5.97;;;5.40;;
2658;SDS011;1339;53.304;10.406;2022-12-24T10:38:52;6.75;;;6.05;;
2658;SDS011;1339;53.304;10.406;2022-12-24T10:41:19;7.30;;;6.60;;
2658;SDS011;1339;53.304;10.406;2022-12-24T10:43:47;6.63;;;6.03;;
2658;SDS011;1339;53.304;10.406;2022-12-24T10:46:16;6.90;;;6.20;;
2658;SDS011;1339;53.304;10.406;2022-12-24T10:48:45;6.32;;;5.70;;
2658;SDS011;1339;53.304;10.406;2022-12-24T10:51:13;6.30;;;5.70;;
2658;SDS011;1339;53.304;10.406;2022-12-24T10:53:45;7.15;;;6.18;;
2658;SDS011;1339;53.304;10.406;2022-12-24T10:56:13;8.00;;;7.40;;
2658;SDS011;1339;53.304;10.406;2022-12-24T10:58:42;6.65;;;5.97;;
2658;SDS011;1339;53.304;10.406;2022-12-24T11:01:09;8.23;;;7.43;;
2658;SDS011;1339;53.304;10.406;2022-12-24T11:03:36;13.50;;;6.95;;
2658;SDS011;1339;53.304;10.406;2022-12-24T11:06:05;11.40;;;7.55;;
2658;SDS011;1339;53.304;10.406;2022-12-24T11:08:33;7.50;;;6.75;;
2658;SDS011;1339;53.304;10.406;2022-12-24T11:11:02;8.50;;;7.18;;
2658;SDS011;1339;53.304;10.406;2022-12-24T11:13:38;8.20;;;7.30;;
2658;SDS011;1339;53.304;10.406;2022-12-24T11:16:06;10.00;;;7.82;;
2658;SDS011;1339;53.304;10.406;2022-12-24T11:18:36;9.43;;;8.23;;
2658;SDS011;1339;53.304;10.406;2022-12-24T11:21:04;9.63;;;7.60;;
2658;SDS011;1339;53.304;10.406;2022-12-24T11:23:31;9.00;;;8.10;;
2658;SDS011;1339;53.304;10.406;2022-12-24T11:25:58;9.30;;;7.78;;
2658;SDS011;1339;53.304;10.406;2022-12-24T11:28:26;9.65;;;7.93;;
2658;SDS011;1339;53.304;10.406;2022-12-24T11:30:56;12.40;;;8.60;;
2658;SDS011;1339;53.304;10.406;2022-12-24T11:33:23;11.32;;;10.02;;
2658;SDS011;1339;53.304;10.406;2022-12-24T11:35:52;11.35;;;8.15;;
2658;SDS011;1339;53.304;10.406;2022-12-24T11:38:20;10.65;;;8.82;;
2658;SDS011;1339;53.304;10.406;2022-12-24T11:40:48;8.75;;;7.70;;
2658;SDS011;1339;53.304;10.406;2022-12-24T11:43:16;10.35;;;8.90;;
2658;SDS011;1339;53.304;10.406;2022-12-24T11:45:47;12.32;;;7.55;;
2658;SDS011;1339;53.304;10.406;2022-12-24T11:48:25;10.07;;;9.07;;
2658;SDS011;1339;53.304;10.406;2022-12-24T11:50:56;12.45;;;8.65;;
2658;SDS011;1339;53.304;10.406;2022-12-24T11:53:24;12.27;;;8.88;;
2658;SDS011;1339;53.304;10.406;2022-12-24T11:55:54;11.45;;;8.75;;
2658;SDS011;1339;53.304;10.406;2022-12-24T11:58:22;14.18;;;10.65;;
2658;SDS011;1339;53.304;10.406;2022-12-24T12:00:56;11.73;;;8.68;;
2658;SDS011;1339;53.304;10.406;2022-12-24T12:03:28;11.27;;;9.60;;
2658;SDS011;1339;53.304;10.406;2022-12-24T12:05:57;13.48;;;9.95;;
2658;SDS011;1339;53.304;10.406;2022-12-24T12:08:25;15.40;;;10.70;;
2658;SDS011;1339;53.304;10.406;2022-12-24T12:10:54;12.45;;;10.32;;
2658;SDS011;1339;53.304;10.406;2022-12-24T12:13:25;10.75;;;8.85;;
2658;SDS011;1339;53.304;10.406;2022-12-24T12:16:00;11.27;;;9.93;;
2658;SDS011;1339;53.304;10.406;2022-12-24T12:18:33;13.95;;;9.82;;
2658;SDS011;1339;53.304;10.406;2022-12-24T12:21:01;12.63;;;10.57;;
2658;SDS011;1339;53.304;10.406;2022-12-24T12:23:31;10.15;;;8.50;;
2658;SDS011;1339;53.304;10.406;2022-12-24T12:26:00;15.27;;;9.75;;
2658;SDS011;1339;53.304;10.406;2022-12-24T12:28:27;12.32;;;8.20;;
2658;SDS011;1339;53.304;10.406;2022-12-24T12:30:59;12.95;;;10.10;;
2658;SDS011;1339;53.304;10.406;2022-12-24T12:33:30;13.30;;;9.43;;
2658;SDS011;1339;53.304;10.406;2022-12-24T12:36:00;13.27;;;9.95;;
2658;SDS011;1339;53.304;10.406;2022-12-24T12:38:27;11.75;;;9.68;;
2658;SDS011;1339;53.304;10.406;2022-12-24T12:41:07;11.35;;;8.90;;
2658;SDS011;1339;53.304;10.406;2022-12-24T12:43:44;12.32;;;9.40;;
2658;SDS011;1339;53.304;10.406;2022-12-24T12:46:18;14.85;;;9.90;;
2658;SDS011;1339;53.304;10.406;2022-12-24T12:48:53;14.85;;;10.80;;
2658;SDS011;1339;53.304;10.406;2022-12-24T12:51:27;19.30;;;11.85;;
2658;SDS011;1339;53.304;10.406;2022-12-24T12:54:05;20.00;;;11.60;;
2658;SDS011;1339;53.304;10.406;2022-12-24T12:56:37;16.13;;;11.00;;
2658;SDS011;1339;53.304;10.406;2022-12-24T12:59:08;16.73;;;10.15;;
2658;SDS011;1339;53.304;10.406;2022-12-24T13:01:39;15.30;;;11.05;;
2658;SDS011;1339;53.304;10.406;2022-12-24T13:07:06;23.60;;;11.05;;
2658;SDS011;1339;53.304;10.406;2022-12-24T13:09:47;26.85;;;9.63;;
2658;SDS011;1339;53.304;10.406;2022-12-24T13:12:24;14.23;;;9.40;;
2658;SDS011;1339;53.304;10.406;2022-12-24T13:14:55;15.57;;;9.63;;
2658;SDS011;1339;53.304;10.406;2022-12-24T13:17:31;22.92;;;10.27;;
2658;SDS011;1339;53.304;10.406;2022-12-24T13:22:52;16.98;;;7.40;;
2658;SDS011;1339;53.304;10.406;2022-12-24T13:25:21;19.08;;;7.07;;
2658;SDS011;1339;53.304;10.406;2022-12-24T13:27:48;16.70;;;6.47;;
2658;SDS011;1339;53.304;10.406;2022-12-24T13:30:31;22.17;;;7.25;;
2658;SDS011;1339;53.304;10.406;2022-12-24T13:32:58;14.30;;;7.32;;
2658;SDS011;1339;53.304;10.406;2022-12-24T13:35:27;22.55;;;7.03;;
2658;SDS011;1339;53.304;10.406;2022-12-24T13:37:56;18.50;;;7.97;;
2658;SDS011;1339;53.304;10.406;2022-12-24T13:40:44;14.88;;;6.68;;
2658;SDS011;1339;53.304;10.406;2022-12-24T13:43:11;22.23;;;8.05;;
2658;SDS011;1339;53.304;10.406;2022-12-24T13:45:42;17.35;;;8.30;;
2658;SDS011;1339;53.304;10.406;2022-12-24T13:48:24;14.05;;;7.20;;
2658;SDS011;1339;53.304;10.406;2022-12-24T13:50:52;19.92;;;9.55;;
2658;SDS011;1339;53.304;10.406;2022-12-24T13:53:21;19.85;;;7.53;;
2658;SDS011;1339;53.304;10.406;2022-12-24T13:55:51;15.93;;;7.60;;
2658;SDS011;1339;53.304;10.406;2022-12-24T13:58:19;25.45;;;7.63;;
2658;SDS011;1339;53.304;10.406;2022-12-24T14:00:50;28.17;;;9.13;;
2658;SDS011;1339;53.304;10.406;2022-12-24T14:03:23;18.02;;;6.93;;
2658;SDS011;1339;53.304;10.406;2022-12-24T14:05:51;20.75;;;8.02;;
2658;SDS011;1339;53.304;10.406;2022-12-24T14:08:25;17.88;;;7.80;;
2658;SDS011;1339;53.304;10.406;2022-12-24T14:10:59;21.08;;;9.38;;
2658;SDS011;1339;53.304;10.406;2022-12-24T14:16:15;17.20;;;8.10;;
2658;SDS011;1339;53.304;10.406;2022-12-24T14:18:45;15.60;;;8.82;;
2658;SDS011;1339;53.304;10.406;2022-12-24T14:21:14;20.98;;;7.70;;
2658;SDS011;1339;53.304;10.406;2022-12-24T14:23:43;14.90;;;8.85;;
2658;SDS011;1339;53.304;10.406;2022-12-24T14:26:13;19.02;;;8.55;;
2658;SDS011;1339;53.304;10.406;2022-12-24T14:28:42;19.60;;;9.38;;
2658;SDS011;1339;53.304;10.406;2022-12-24T14:31:12;23.83;;;9.32;;
2658;SDS011;1339;53.304;10.406;2022-12-24T14:33:39;25.13;;;9.57;;
2658;SDS011;1339;53.304;10.406;2022-12-24T14:36:07;19.85;;;9.65;;
2658;SDS011;1339;53.304;10.406;2022-12-24T14:38:35;25.30;;;11.13;;
2658;SDS011;1339;53.304;10.406;2022-12-24T14:41:04;27.42;;;10.98;;
2658;SDS011;1339;53.304;10.406;2022-12-24T14:43:38;22.60;;;11.77;;
2658;SDS011;1339;53.304;10.406;2022-12-24T14:46:10;25.88;;;12.52;;
2658;SDS011;1339;53.304;10.406;2022-12-24T14:48:40;27.23;;;10.73;;
2658;SDS011;1339;53.304;10.406;2022-12-24T14:51:11;22.05;;;10.43;;
2658;SDS011;1339;53.304;10.406;2022-12-24T14:53:45;24.08;;;13.32;;
2658;SDS011;1339;53.304;10.406;2022-12-24T14:56:18;18.45;;;10.52;;
2658;SDS011;1339;53.304;10.406;2022-12-24T14:58:47;26.33;;;10.73;;
2658;SDS011;1339;53.304;10.406;2022-12-24T15:01:19;25.48;;;10.13;;
2658;SDS011;1339;53.304;10.406;2022-12-24T15:03:58;22.15;;;12.00;;
2658;SDS011;1339;53.304;10.406;2022-12-24T15:06:25;18.75;;;9.50;;